createdAt,value
2023-03-16T00:00:14.378Z,101085.91
2023-03-16T00:02:41.916Z,101078.09
2023-03-16T00:05:09.389Z,101076.47
2023-03-16T00:07:35.871Z,101082.59
2023-03-16T00:10:03.679Z,101077.81
2023-03-16T00:12:34.721Z,101083.13
2023-03-16T00:15:02.164Z,101084.47
2023-03-16T00:17:28.710Z,101074.50
2023-03-16T00:19:55.974Z,101080.19
2023-03-16T00:22:29.487Z,101082.69
2023-03-16T00:24:56.707Z,101077.06
2023-03-16T00:27:24.700Z,101076.75
2023-03-16T00:29:55.824Z,101071.13
2023-03-16T00:32:27.085Z,101071.63
2023-03-16T00:34:53.835Z,101081.94
2023-03-16T00:37:23.777Z,101074.66
2023-03-16T00:39:51.378Z,101067.34
2023-03-16T00:42:18.615Z,101070.53
2023-03-16T00:44:47.579Z,101067.72
2023-03-16T00:47:17.039Z,101070.88
2023-03-16T00:49:44.592Z,101061.09
2023-03-16T00:52:15.173Z,101069.75
2023-03-16T00:54:43.163Z,101067.72
2023-03-16T00:57:10.538Z,101063.28
2023-03-16T00:59:37.992Z,101057.13
2023-03-16T01:02:06.116Z,101061.44
2023-03-16T01:04:34.247Z,101062.28
2023-03-16T01:07:00.775Z,101056.97
2023-03-16T01:09:29.616Z,101061.28
2023-03-16T01:11:56.109Z,101059.47
2023-03-16T01:14:22.962Z,101062.13
2023-03-16T01:16:49.511Z,101062.94
2023-03-16T01:19:16.017Z,101054.16
2023-03-16T01:21:42.831Z,101049.66
2023-03-16T01:24:09.694Z,101045.19
2023-03-16T01:26:36.218Z,101050.50
2023-03-16T01:29:02.730Z,101047.84
2023-03-16T01:31:29.524Z,101057.47
2023-03-16T01:33:55.974Z,101056.47
2023-03-16T01:36:22.473Z,101045.03
2023-03-16T01:38:49.151Z,101040.88
2023-03-16T01:41:15.885Z,101049.19
2023-03-16T01:43:43.635Z,101040.53
2023-03-16T01:46:10.154Z,101041.53
2023-03-16T01:48:45.285Z,101040.53
2023-03-16T01:51:14.752Z,101038.88
2023-03-16T01:53:44.719Z,101033.56
2023-03-16T01:56:13.875Z,101027.59
2023-03-16T01:58:43.178Z,101042.53
2023-03-16T02:01:11.227Z,101037.22
2023-03-16T02:03:37.815Z,101031.22
2023-03-16T02:06:11.244Z,101033.88
2023-03-16T02:08:39.053Z,101034.72
2023-03-16T02:11:06.226Z,101033.88
2023-03-16T02:13:36.729Z,101033.88
2023-03-16T02:16:05.721Z,101028.56
2023-03-16T02:18:32.639Z,101032.22
2023-03-16T02:21:11.333Z,101035.88
2023-03-16T02:23:37.960Z,101037.53
2023-03-16T02:26:25.892Z,101026.91
2023-03-16T02:28:55.373Z,101029.41
2023-03-16T02:31:22.536Z,101028.56
2023-03-16T02:33:50.977Z,101026.75
2023-03-16T02:36:18.724Z,101029.41
2023-03-16T02:38:46.506Z,101027.75
2023-03-16T02:41:17.714Z,101028.56
2023-03-16T02:43:47.715Z,101019.91
2023-03-16T02:46:15.006Z,101014.59
2023-03-16T02:48:45.412Z,101008.47
2023-03-16T02:51:11.959Z,101012.97
2023-03-16T02:53:38.443Z,101007.66
2023-03-16T02:56:05.162Z,101008.81
2023-03-16T02:58:32.148Z,101007.97
2023-03-16T03:00:59.097Z,101001.00
2023-03-16T03:03:25.761Z,100998.34
2023-03-16T03:05:52.670Z,100994.84
2023-03-16T03:08:22.914Z,100989.69
2023-03-16T03:10:49.739Z,100985.38
2023-03-16T03:13:16.384Z,100993.50
2023-03-16T03:15:42.944Z,100988.34
2023-03-16T03:18:09.472Z,100991.19
2023-03-16T03:20:36.006Z,100991.34
2023-03-16T03:23:03.261Z,100981.72
2023-03-16T03:25:29.816Z,100988.81
2023-03-16T03:27:56.522Z,100985.53
2023-03-16T03:30:26.268Z,100984.66
2023-03-16T03:32:53.068Z,100977.88
2023-03-16T03:35:20.378Z,100984.34
2023-03-16T03:37:47.382Z,100979.03
2023-03-16T03:40:15.077Z,100981.69
2023-03-16T03:42:42.114Z,100981.69
2023-03-16T03:45:09.116Z,100987.00
2023-03-16T03:47:35.585Z,100982.66
2023-03-16T03:50:02.646Z,100987.00
2023-03-16T03:52:29.258Z,100986.66
2023-03-16T03:54:55.786Z,100985.06
2023-03-16T03:57:22.339Z,100993.09
2023-03-16T03:59:48.861Z,100994.47
2023-03-16T04:02:15.467Z,100989.66
2023-03-16T04:04:42.606Z,100986.34
2023-03-16T04:07:09.111Z,100997.28
2023-03-16T04:09:36.228Z,100989.72
2023-03-16T04:12:03.869Z,100985.78
2023-03-16T04:14:30.671Z,100978.47
2023-03-16T04:16:58.189Z,100973.66
2023-03-16T04:19:24.818Z,100974.84
2023-03-16T04:21:51.793Z,100976.75
2023-03-16T04:24:18.409Z,100976.88
2023-03-16T04:26:45.401Z,100984.69
2023-03-16T04:29:14.605Z,100985.06
2023-03-16T04:31:42.513Z,100983.91
2023-03-16T04:34:09.066Z,100989.13
2023-03-16T04:36:35.522Z,100994.53
2023-03-16T04:39:02.410Z,100983.25
2023-03-16T04:41:28.852Z,100983.69
2023-03-16T04:43:55.385Z,100979.78
2023-03-16T04:46:21.839Z,100984.66
2023-03-16T04:48:48.440Z,100986.72
2023-03-16T04:51:14.987Z,100981.94
2023-03-16T04:53:41.834Z,100979.66
2023-03-16T04:56:08.475Z,100971.22
2023-03-16T04:58:35.076Z,100975.91
2023-03-16T05:01:02.365Z,100985.78
2023-03-16T05:03:28.926Z,100983.09
2023-03-16T05:05:55.459Z,100982.50
2023-03-16T05:08:22.034Z,100970.03
2023-03-16T05:10:48.709Z,100969.88
2023-03-16T05:13:15.300Z,100974.19
2023-03-16T05:15:41.934Z,100981.19
2023-03-16T05:18:08.435Z,100981.88
2023-03-16T05:20:34.979Z,100981.69
2023-03-16T05:23:01.877Z,100975.19
2023-03-16T05:25:28.396Z,100978.38
2023-03-16T05:27:54.876Z,100977.88
2023-03-16T05:30:21.453Z,100981.19
2023-03-16T05:32:47.977Z,100983.19
2023-03-16T05:35:14.522Z,100974.72
2023-03-16T05:37:41.720Z,100965.22
2023-03-16T05:40:16.896Z,100969.22
2023-03-16T05:42:47.490Z,100974.53
2023-03-16T05:45:14.986Z,100977.38
2023-03-16T05:47:42.083Z,100969.72
2023-03-16T05:50:11.478Z,100975.19
2023-03-16T05:52:38.696Z,100967.38
2023-03-16T05:55:06.060Z,100964.91
2023-03-16T05:57:35.714Z,100967.91
2023-03-16T06:00:23.619Z,100964.25
2023-03-16T06:02:53.826Z,100966.06
2023-03-16T06:05:21.886Z,100965.22
2023-03-16T06:07:50.174Z,100965.41
2023-03-16T06:10:16.988Z,100966.91
2023-03-16T06:12:43.441Z,100950.97
2023-03-16T06:15:10.454Z,100952.59
2023-03-16T06:17:37.617Z,100949.63
2023-03-16T06:20:10.409Z,100942.97
2023-03-16T06:22:38.474Z,100935.66
2023-03-16T06:25:05.168Z,100943.97
2023-03-16T06:27:31.607Z,100952.28
2023-03-16T06:29:58.061Z,100939.66
2023-03-16T06:32:24.514Z,100939.94
2023-03-16T06:34:53.224Z,100947.28
2023-03-16T06:37:19.638Z,100936.28
2023-03-16T06:39:46.075Z,100946.31
2023-03-16T06:42:12.508Z,100946.47
2023-03-16T06:44:39.052Z,100941.28
2023-03-16T06:47:05.593Z,100951.25
2023-03-16T06:49:32.101Z,100938.28
2023-03-16T06:51:58.793Z,100935.09
2023-03-16T06:54:25.223Z,100927.44
2023-03-16T06:56:52.381Z,100947.22
2023-03-16T06:59:18.803Z,100945.88
2023-03-16T07:01:45.264Z,100949.53
2023-03-16T07:04:12.851Z,100953.50
2023-03-16T07:06:42.350Z,100965.13
2023-03-16T07:09:08.809Z,100960.78
2023-03-16T07:11:35.396Z,100982.38
2023-03-16T07:14:02.323Z,100971.53
2023-03-16T07:16:28.739Z,100974.97
2023-03-16T07:18:55.331Z,100999.75
2023-03-16T07:21:21.862Z,100983.91
2023-03-16T07:23:48.362Z,100992.53
2023-03-16T07:26:14.784Z,101003.16
2023-03-16T07:28:41.478Z,100991.13
2023-03-16T07:31:07.974Z,101004.41
2023-03-16T07:33:35.112Z,101003.03
2023-03-16T07:36:04.699Z,101002.34
2023-03-16T07:38:32.540Z,101001.00
2023-03-16T07:40:59.946Z,100993.94
2023-03-16T07:43:26.379Z,100994.41
2023-03-16T07:45:53.099Z,100996.38
2023-03-16T07:48:19.881Z,100997.50
2023-03-16T07:50:49.620Z,100997.63
2023-03-16T07:53:16.049Z,101000.78
2023-03-16T07:55:43.067Z,101006.03
2023-03-16T07:58:10.802Z,101003.66
2023-03-16T08:00:37.247Z,101007.44
2023-03-16T08:03:03.676Z,101013.75
2023-03-16T08:05:32.409Z,101018.16
2023-03-16T08:07:58.924Z,101012.78
2023-03-16T08:10:25.558Z,101006.69
2023-03-16T08:12:52.211Z,101010.97
2023-03-16T08:15:19.364Z,101010.06
2023-03-16T08:17:46.702Z,101008.78
2023-03-16T08:20:14.546Z,101009.72
2023-03-16T08:22:46.576Z,101011.28
2023-03-16T08:25:13.854Z,101007.50
2023-03-16T08:27:40.353Z,101015.25
2023-03-16T08:30:08.255Z,101011.00
2023-03-16T08:32:34.737Z,101001.41
2023-03-16T08:35:01.148Z,101009.53
2023-03-16T08:37:27.591Z,101011.66
2023-03-16T08:39:54.361Z,101015.41
2023-03-16T08:42:21.228Z,101009.34
2023-03-16T08:44:50.945Z,101013.28
2023-03-16T08:47:17.984Z,101015.19
2023-03-16T08:49:44.897Z,101017.13
2023-03-16T08:52:12.929Z,101012.03
2023-03-16T08:54:39.646Z,101011.66
2023-03-16T08:57:06.106Z,101009.91
2023-03-16T08:59:32.482Z,101015.50
2023-03-16T09:01:59.246Z,101011.81
2023-03-16T09:04:25.829Z,101014.00
2023-03-16T09:07:05.802Z,101011.59
2023-03-16T09:09:35.539Z,101017.38
2023-03-16T09:12:03.071Z,101006.72
2023-03-16T09:14:29.939Z,101004.31
2023-03-16T09:16:56.690Z,100997.19
2023-03-16T09:19:23.062Z,101001.94
2023-03-16T09:21:49.452Z,100987.59
2023-03-16T09:24:15.898Z,100986.63
2023-03-16T09:26:42.799Z,100976.25
2023-03-16T09:29:09.244Z,100988.84
2023-03-16T09:31:36.339Z,100976.16
2023-03-16T09:34:02.890Z,100979.31
2023-03-16T09:36:29.300Z,100976.28
2023-03-16T09:38:56.280Z,100966.41
2023-03-16T09:41:40.858Z,100977.78
2023-03-16T09:44:26.279Z,100959.66
2023-03-16T09:46:53.234Z,100969.81
2023-03-16T09:49:21.127Z,100955.63
2023-03-16T09:51:51.256Z,100956.88
2023-03-16T09:54:26.612Z,100962.06
2023-03-16T09:56:54.516Z,100968.47
2023-03-16T09:59:22.606Z,100963.56
2023-03-16T10:01:48.967Z,100952.00
2023-03-16T10:04:22.177Z,100952.69
2023-03-16T10:06:55.854Z,100955.16
2023-03-16T10:09:25.269Z,100945.28
2023-03-16T10:11:56.113Z,100952.53
2023-03-16T10:14:30.858Z,100948.81
2023-03-16T10:17:17.037Z,100976.09
2023-03-16T10:19:45.998Z,100955.22
2023-03-16T10:22:18.561Z,100950.06
2023-03-16T10:24:54.222Z,100955.91
2023-03-16T10:27:27.156Z,100954.69
2023-03-16T10:29:53.689Z,100951.38
2023-03-16T10:32:20.138Z,100942.28
2023-03-16T10:34:53.838Z,100945.19
2023-03-16T10:37:21.536Z,100929.06
2023-03-16T10:39:49.030Z,100926.16
2023-03-16T10:42:17.076Z,100959.84
2023-03-16T10:44:43.527Z,100943.13
2023-03-16T10:47:24.285Z,100937.94
2023-03-16T10:49:51.513Z,100931.09
2023-03-16T10:52:17.864Z,100941.63
2023-03-16T10:54:49.878Z,100928.59
2023-03-16T10:57:19.229Z,100922.34
2023-03-16T10:59:49.690Z,100916.13
2023-03-16T11:02:17.642Z,100923.53
2023-03-16T11:04:44.089Z,100928.06
2023-03-16T11:07:16.347Z,100928.47
2023-03-16T11:09:43.379Z,100913.53
2023-03-16T11:12:15.426Z,100908.97
2023-03-16T11:14:49.121Z,100911.41
2023-03-16T11:17:36.922Z,100908.31
2023-03-16T11:20:12.413Z,100899.31
2023-03-16T11:22:40.780Z,100908.19
2023-03-16T11:25:15.642Z,100901.28
2023-03-16T11:27:41.999Z,100901.88
2023-03-16T11:30:15.062Z,100902.69
2023-03-16T11:32:43.481Z,100901.78
2023-03-16T11:35:33.244Z,100894.44
2023-03-16T11:38:02.435Z,100890.22
2023-03-16T11:40:53.887Z,100888.91
2023-03-16T11:43:27.173Z,100899.56
2023-03-16T11:46:06.782Z,100879.38
2023-03-16T11:48:33.429Z,100883.19
2023-03-16T11:51:11.662Z,100879.41
2023-03-16T11:53:39.568Z,100871.03
2023-03-16T11:56:15.540Z,100877.28
2023-03-16T11:58:56.319Z,100861.44
2023-03-16T12:01:31.404Z,100839.78
2023-03-16T12:04:13.351Z,100850.97
2023-03-16T12:06:45.284Z,100852.63
2023-03-16T12:09:47.187Z,100849.00
2023-03-16T12:12:23.221Z,100841.28
2023-03-16T12:15:16.599Z,100843.31
2023-03-16T12:17:44.142Z,100834.63
2023-03-16T12:20:17.209Z,100834.63
2023-03-16T12:22:45.212Z,100826.97
2023-03-16T12:25:22.176Z,100826.84
2023-03-16T12:27:51.185Z,100816.03
2023-03-16T12:30:30.346Z,100809.00
2023-03-16T12:33:06.023Z,100814.53
2023-03-16T12:35:35.890Z,100805.31
2023-03-16T12:38:16.085Z,100790.06
2023-03-16T12:40:51.602Z,100787.28
2023-03-16T12:43:18.020Z,100782.41
2023-03-16T12:46:04.763Z,100783.59
2023-03-16T12:48:34.125Z,100785.06
2023-03-16T12:51:02.292Z,100792.22
2023-03-16T12:53:46.815Z,100784.38
2023-03-16T12:56:20.617Z,100792.38
2023-03-16T12:58:48.655Z,100791.66
2023-03-16T13:01:17.029Z,100785.22
2023-03-16T13:03:44.435Z,100779.72
2023-03-16T13:06:22.229Z,100781.25
2023-03-16T13:08:52.470Z,100772.31
2023-03-16T13:11:18.917Z,100775.56
2023-03-16T13:13:49.815Z,100767.81
2023-03-16T13:16:27.503Z,100777.53
2023-03-16T13:18:54.856Z,100783.50
2023-03-16T13:21:23.029Z,100775.44
2023-03-16T13:24:13.998Z,100776.81
2023-03-16T13:26:52.205Z,100763.47
2023-03-16T13:29:26.450Z,100763.53
2023-03-16T13:31:54.200Z,100752.22
2023-03-16T13:34:31.235Z,100747.56
2023-03-16T13:36:59.052Z,100732.06
2023-03-16T13:39:27.644Z,100737.38
2023-03-16T13:41:59.610Z,100737.84
2023-03-16T13:44:26.765Z,100727.13
2023-03-16T13:46:53.229Z,100723.56
2023-03-16T13:49:20.125Z,100740.19
2023-03-16T13:51:47.297Z,100731.72
2023-03-16T13:54:21.777Z,100726.56
2023-03-16T13:56:49.098Z,100723.94
2023-03-16T13:59:15.760Z,100732.44
2023-03-16T14:01:46.317Z,100718.53
2023-03-16T14:04:18.718Z,100708.34
2023-03-16T14:06:52.476Z,100705.50
2023-03-16T14:09:21.780Z,100703.03
2023-03-16T14:11:48.872Z,100703.25
2023-03-16T14:14:16.908Z,100682.75
2023-03-16T14:16:43.862Z,100668.78
2023-03-16T14:19:19.355Z,100681.94
2023-03-16T14:21:46.278Z,100689.88
2023-03-16T14:24:21.191Z,100667.69
2023-03-16T14:26:48.125Z,100670.03
2023-03-16T14:29:18.733Z,100673.53
2023-03-16T14:31:45.907Z,100673.16
2023-03-16T14:34:27.096Z,100673.03
2023-03-16T14:36:55.941Z,100673.03
2023-03-16T14:39:27.122Z,100655.22
2023-03-16T23:50:36.958Z,100183.88
2023-03-16T23:53:03.629Z,100176.28
2023-03-16T23:55:30.144Z,100171.34
2023-03-16T23:57:56.585Z,100156.25
